Time;durP1;ratioP1;P1;durP2;ratioP2;P2;SDS_P1;SDS_P2;PMS_P1;PMS_P2;Temp;Humidity;BMP_temperature;BMP_pressure;BME280_temperature;BME280_humidity;BME280_pressure;Samples;Min_cycle;Max_cycle;Signal;HPM_P1;HPM_P2
2022/05/18 00:00:54;;;;;;;11.95;8.35;;;;;;;-145.18;100.00;60484.78;5040809;28;20025;-68
2022/05/18 00:03:23;;;;;;;13.40;7.82;;;;;;;-145.18;100.00;60484.78;5041059;28;20116;-68
2022/05/18 00:05:49;;;;;;;16.05;9.02;;;;;;;-145.18;100.00;60484.78;5036771;28;20032;-68
2022/05/18 00:08:14;;;;;;;15.00;8.15;;;;;;;-145.18;100.00;60484.78;5031716;28;20029;-68
2022/05/18 00:10:45;;;;;;;13.25;7.78;;;;;;;-145.18;100.00;60484.78;5039529;28;20393;-68
2022/05/18 00:13:11;;;;;;;14.98;7.80;;;;;;;-145.18;100.00;60484.78;5047588;28;20115;-68
2022/05/18 00:15:38;;;;;;;14.57;7.90;;;;;;;-145.18;100.00;60484.78;5039484;28;20023;-68
2022/05/18 00:18:03;;;;;;;18.63;8.27;;;;;;;-145.18;100.00;60484.78;5032109;28;20033;-68
2022/05/18 00:20:29;;;;;;;13.27;8.25;;;;;;;-145.18;100.00;60484.78;5045495;28;20029;-68
2022/05/18 00:22:57;;;;;;;17.25;8.88;;;;;;;-145.18;100.00;60484.78;5048381;28;20021;-68
2022/05/18 00:25:25;;;;;;;14.07;8.20;;;;;;;-145.18;100.00;60484.78;5042022;28;20029;-68
2022/05/18 00:27:51;;;;;;;12.68;8.57;;;;;;;-145.18;100.00;60484.78;5037619;28;20021;-68
2022/05/18 00:30:19;;;;;;;16.30;8.55;;;;;;;-145.18;100.00;60484.78;5035357;28;20025;-68
2022/05/18 00:32:44;;;;;;;12.70;8.25;;;;;;;-145.18;100.00;60484.78;5041749;28;20090;-68
2022/05/18 00:35:11;;;;;;;15.10;8.48;;;;;;;-145.18;100.00;60484.78;5042534;28;20028;-68
2022/05/18 00:37:37;;;;;;;14.60;8.73;;;;;;;-145.18;100.00;60484.78;5038030;28;20091;-68
2022/05/18 00:40:04;;;;;;;17.52;9.32;;;;;;;-145.18;100.00;60484.78;5042863;28;20051;-68
2022/05/18 00:42:30;;;;;;;14.80;9.48;;;;;;;-145.18;100.00;60484.78;5038257;28;20050;-68
2022/05/18 00:44:55;;;;;;;15.52;9.05;;;;;;;-145.18;100.00;60484.78;5033744;28;20112;-68
2022/05/18 00:47:21;;;;;;;13.80;8.65;;;;;;;-145.18;100.00;60484.78;5040559;28;20082;-68
2022/05/18 00:49:59;;;;;;;15.50;9.30;;;;;;;-145.18;100.00;60484.78;5046736;28;20029;-68
2022/05/18 00:52:29;;;;;;;15.98;9.30;;;;;;;-145.18;100.00;60484.78;5035101;28;20021;-68
2022/05/18 00:54:57;;;;;;;19.60;9.63;;;;;;;-145.18;100.00;60484.78;5037266;28;20033;-67
2022/05/18 00:57:40;;;;;;;14.13;8.88;;;;;;;-145.18;100.00;60484.78;5035444;28;20025;-67
2022/05/18 01:00:12;;;;;;;13.77;9.00;;;;;;;-145.18;100.00;60484.78;5046496;28;20037;-68
2022/05/18 01:02:42;;;;;;;14.50;9.18;;;;;;;-145.18;100.00;60484.78;5045469;28;20164;-68
2022/05/18 01:05:12;;;;;;;17.65;9.18;;;;;;;-145.18;100.00;60484.78;5039597;28;20029;-68
2022/05/18 01:07:45;;;;;;;15.95;9.13;;;;;;;-145.18;100.00;60484.78;5034489;28;20021;-68
2022/05/18 01:10:11;;;;;;;20.60;9.23;;;;;;;-145.18;100.00;60484.78;5034127;28;20017;-68
2022/05/18 01:12:36;;;;;;;14.05;8.35;;;;;;;-145.18;100.00;60484.78;5035735;28;20492;-68
2022/05/18 01:15:11;;;;;;;17.03;8.80;;;;;;;-145.18;100.00;60484.78;5045591;28;20036;-68
2022/05/18 01:17:42;;;;;;;15.80;8.20;;;;;;;-145.18;100.00;60484.78;5042367;28;20469;-68
2022/05/18 01:20:12;;;;;;;16.13;8.15;;;;;;;-145.18;100.00;60484.78;5046610;28;20052;-68
2022/05/18 01:23:02;;;;;;;14.50;8.77;;;;;;;-145.18;100.00;60484.78;5038227;28;20087;-68
2022/05/18 01:25:27;;;;;;;15.60;8.70;;;;;;;-145.18;100.00;60484.78;5042374;28;20743;-67
2022/05/18 01:27:53;;;;;;;17.02;8.57;;;;;;;-145.18;100.00;60484.78;5035834;28;20039;-68
2022/05/18 01:30:19;;;;;;;12.97;8.27;;;;;;;-145.18;100.00;60484.78;5045475;28;20029;-68
2022/05/18 01:32:51;;;;;;;12.77;7.57;;;;;;;-145.18;100.00;60484.78;5035296;28;20037;-68
2022/05/18 01:35:20;;;;;;;16.17;8.50;;;;;;;-145.18;100.00;60484.78;5034468;28;20484;-68
2022/05/18 01:37:46;;;;;;;18.60;8.35;;;;;;;-145.18;100.00;60484.78;5037466;28;20029;-68
2022/05/18 01:40:26;;;;;;;16.05;8.88;;;;;;;-145.18;100.00;60484.78;5041595;28;20033;-68
2022/05/18 01:43:43;;;;;;;16.55;9.00;;;;;;;-145.18;100.00;60484.78;5038567;28;20030;-68
2022/05/18 01:46:12;;;;;;;17.13;9.50;;;;;;;-145.18;100.00;60484.78;5037201;28;20053;-68
2022/05/18 01:48:45;;;;;;;17.63;9.32;;;;;;;-145.18;100.00;60484.78;5042564;28;20420;-68
2022/05/18 01:51:13;;;;;;;18.80;9.95;;;;;;;-145.18;100.00;60484.78;5040677;28;20413;-68
2022/05/18 01:53:39;;;;;;;18.40;9.23;;;;;;;-145.18;100.00;60484.78;5038216;28;20037;-68
2022/05/18 01:56:04;;;;;;;14.05;9.05;;;;;;;-145.18;100.00;60484.78;5036599;28;20026;-68
2022/05/18 01:58:30;;;;;;;15.60;9.80;;;;;;;-145.18;100.00;60484.78;5042135;28;20481;-67
2022/05/18 02:00:55;;;;;;;16.13;9.45;;;;;;;-145.18;100.00;60484.78;5044760;28;20040;-68
2022/05/18 02:03:22;;;;;;;16.52;9.13;;;;;;;-145.18;100.00;60484.78;5040251;28;20045;-68
2022/05/18 02:05:50;;;;;;;17.63;9.03;;;;;;;-145.18;100.00;60484.78;5034932;28;20032;-68
2022/05/18 02:08:19;;;;;;;14.88;9.05;;;;;;;-145.18;100.00;60484.78;5036204;28;20043;-68
2022/05/18 02:10:45;;;;;;;19.40;9.40;;;;;;;-145.18;100.00;60484.78;5038494;28;20397;-68
2022/05/18 02:13:10;;;;;;;15.57;9.00;;;;;;;-145.18;100.00;60484.78;5037848;28;20037;-68
2022/05/18 02:15:36;;;;;;;19.15;8.88;;;;;;;-145.18;100.00;60484.78;5036130;28;20537;-67
2022/05/18 02:18:01;;;;;;;17.63;9.43;;;;;;;-145.18;100.00;60484.78;5038784;28;20029;-68
2022/05/18 02:20:27;;;;;;;19.58;9.35;;;;;;;-145.18;100.00;60484.78;5031945;28;20025;-67
2022/05/18 02:22:53;;;;;;;16.23;8.90;;;;;;;-145.18;100.00;60484.78;5035738;28;20056;-68
2022/05/18 02:25:21;;;;;;;17.00;9.57;;;;;;;-145.18;100.00;60484.78;5032218;28;20033;-68
2022/05/18 02:27:47;;;;;;;17.90;9.63;;;;;;;-145.18;100.00;60484.78;5036736;28;20025;-68
2022/05/18 02:30:14;;;;;;;17.90;10.00;;;;;;;-145.18;100.00;60484.78;5040610;28;20116;-68
2022/05/18 02:32:40;;;;;;;15.07;9.27;;;;;;;-145.18;100.00;60484.78;5034457;28;20041;-68
2022/05/18 02:35:06;;;;;;;17.90;8.80;;;;;;;-145.18;100.00;60484.78;5037152;28;20041;-68
2022/05/18 02:37:33;;;;;;;14.38;9.02;;;;;;;-145.18;100.00;60484.78;5034152;28;20041;-68
2022/05/18 02:39:58;;;;;;;16.77;9.03;;;;;;;-145.18;100.00;60484.78;5045979;28;20439;-68
2022/05/18 02:42:24;;;;;;;14.90;8.90;;;;;;;-145.18;100.00;60484.78;5046431;28;20067;-68
2022/05/18 02:44:49;;;;;;;15.97;9.13;;;;;;;-145.18;100.00;60484.78;5045465;28;20036;-68
2022/05/18 02:47:15;;;;;;;18.03;10.03;;;;;;;-145.18;100.00;60484.78;5033446;28;20429;-68
2022/05/18 02:49:40;;;;;;;17.48;9.18;;;;;;;-145.18;100.00;60484.78;5043518;28;20032;-68
2022/05/18 02:52:06;;;;;;;19.83;9.37;;;;;;;-145.18;100.00;60484.78;5034871;28;20029;-68
2022/05/18 02:57:15;;;;;;;15.50;9.43;;;;;;;-145.18;100.00;60484.78;5031902;28;20401;-68
2022/05/18 02:59:43;;;;;;;16.63;9.70;;;;;;;-145.18;100.00;60484.78;5041801;28;20032;-68
2022/05/18 03:02:08;;;;;;;15.57;9.33;;;;;;;-145.18;100.00;60484.78;5034416;28;20379;-68
2022/05/18 03:04:34;;;;;;;13.80;9.00;;;;;;;-145.18;100.00;60484.78;5042431;28;20086;-68
2022/05/18 03:06:59;;;;;;;17.27;8.93;;;;;;;-145.18;100.00;60484.78;5046510;28;20123;-68
2022/05/18 03:09:26;;;;;;;13.97;8.50;;;;;;;-145.18;100.00;60484.78;5033648;28;20091;-68
2022/05/18 03:11:51;;;;;;;17.17;8.83;;;;;;;-145.18;100.00;60484.78;5041249;28;20115;-68
2022/05/18 03:14:17;;;;;;;14.03;8.93;;;;;;;-145.18;100.00;60484.78;5043590;28;20521;-68
2022/05/18 03:16:44;;;;;;;13.87;9.20;;;;;;;-145.18;100.00;60484.78;5041144;28;20033;-68
2022/05/18 03:19:10;;;;;;;18.10;9.50;;;;;;;-145.18;100.00;60484.78;5037589;28;20036;-68
2022/05/18 03:24:20;;;;;;;12.00;8.47;;;;;;;-145.18;100.00;60484.78;5031012;28;20080;-68
2022/05/18 03:26:45;;;;;;;18.23;9.83;;;;;;;-145.18;100.00;60484.78;5040752;28;20116;-68
2022/05/18 03:29:10;;;;;;;21.93;9.93;;;;;;;-145.18;100.00;60484.78;5042395;28;20393;-68
2022/05/18 03:31:36;;;;;;;14.27;9.03;;;;;;;-145.18;100.00;60484.78;5035942;28;20029;-68
2022/05/18 03:34:01;;;;;;;16.30;9.00;;;;;;;-145.18;100.00;60484.78;5040512;28;20061;-68
2022/05/18 03:36:27;;;;;;;18.57;9.43;;;;;;;-145.18;100.00;60484.78;5042597;28;20385;-68
2022/05/18 03:38:54;;;;;;;16.40;9.40;;;;;;;-145.18;100.00;60484.78;5031920;28;20029;-68
2022/05/18 03:41:20;;;;;;;19.63;9.60;;;;;;;-145.18;100.00;60484.78;5043464;28;20032;-68
2022/05/18 03:43:46;;;;;;;15.17;9.10;;;;;;;-145.18;100.00;60484.78;5036206;28;20393;-67
2022/05/18 03:46:13;;;;;;;16.47;9.70;;;;;;;-145.18;100.00;60484.78;5043234;28;20036;-67
2022/05/18 03:48:39;;;;;;;16.87;9.50;;;;;;;-145.18;100.00;60484.78;5045132;28;20124;-68
2022/05/18 03:51:08;;;;;;;16.10;9.37;;;;;;;-145.18;100.00;60484.78;5040958;28;20059;-68
2022/05/18 03:53:34;;;;;;;19.40;10.00;;;;;;;-145.18;100.00;60484.78;5032984;28;20033;-68
2022/05/18 03:56:00;;;;;;;15.80;9.33;;;;;;;-145.18;100.00;60484.78;5032287;28;20625;-68
2022/05/18 03:58:26;;;;;;;15.50;9.17;;;;;;;-145.18;100.00;60484.78;5037976;28;20112;-68
2022/05/18 04:00:53;;;;;;;20.23;9.50;;;;;;;-145.18;100.00;60484.78;5038613;28;20464;-68
2022/05/18 04:03:20;;;;;;;20.60;9.27;;;;;;;-145.18;100.00;60484.78;5048015;28;20103;-68
2022/05/18 04:05:50;;;;;;;15.98;9.50;;;;;;;-145.18;100.00;60484.78;5043841;28;20030;-68
2022/05/18 04:08:16;;;;;;;17.27;9.37;;;;;;;-145.18;100.00;60484.78;5041172;28;20659;-68
2022/05/18 04:10:41;;;;;;;15.23;9.37;;;;;;;-145.18;100.00;60484.78;5033759;28;20048;-68
2022/05/18 04:13:11;;;;;;;16.75;9.27;;;;;;;-145.18;100.00;60484.78;5036007;28;20123;-68
2022/05/18 04:15:37;;;;;;;15.27;9.13;;;;;;;-145.18;100.00;60484.78;5032998;28;20025;-68
2022/05/18 04:18:03;;;;;;;15.05;8.68;;;;;;;-145.18;100.00;60484.78;5038495;28;20036;-68
2022/05/18 04:20:29;;;;;;;14.93;8.87;;;;;;;-145.18;100.00;60484.78;5034693;28;20107;-68
2022/05/18 04:22:55;;;;;;;14.18;8.75;;;;;;;-145.18;100.00;60484.78;5043089;28;20120;-68
2022/05/18 04:25:25;;;;;;;18.52;8.90;;;;;;;-145.18;100.00;60484.78;5036144;28;20036;-68
2022/05/18 04:27:50;;;;;;;16.33;8.80;;;;;;;-145.18;100.00;60484.78;5039656;28;20489;-68
2022/05/18 04:30:18;;;;;;;16.52;8.82;;;;;;;-145.18;100.00;60484.78;5034059;28;20072;-68
2022/05/18 04:32:43;;;;;;;14.15;8.90;;;;;;;-145.18;100.00;60484.78;5044679;28;20020;-68
2022/05/18 04:35:11;;;;;;;13.75;7.53;;;;;;;-145.18;100.00;60484.78;5031141;28;20402;-68
2022/05/18 04:37:37;;;;;;;12.13;6.90;;;;;;;-145.18;100.00;60484.78;5030655;28;20037;-68
2022/05/18 04:40:05;;;;;;;13.32;6.65;;;;;;;-145.18;100.00;60484.78;5037253;28;20034;-68
2022/05/18 04:42:30;;;;;;;12.77;6.57;;;;;;;-145.18;100.00;60484.78;5031678;28;20044;-68
2022/05/18 04:44:56;;;;;;;13.95;7.22;;;;;;;-145.18;100.00;60484.78;5042504;28;20489;-68
2022/05/18 04:47:23;;;;;;;12.63;6.90;;;;;;;-145.18;100.00;60484.78;5035008;28;20053;-68
2022/05/18 04:49:50;;;;;;;14.13;6.10;;;;;;;-145.18;100.00;60484.78;5034036;28;20025;-68
2022/05/18 04:52:19;;;;;;;11.90;6.20;;;;;;;-145.18;100.00;60484.78;5033662;28;20049;-68
2022/05/18 04:54:44;;;;;;;14.20;6.00;;;;;;;-145.18;100.00;60484.78;5043178;28;20028;-68
2022/05/18 04:57:10;;;;;;;10.52;6.05;;;;;;;-145.18;100.00;60484.78;5031762;28;20075;-68
2022/05/18 04:59:35;;;;;;;8.60;5.80;;;;;;;-145.18;100.00;60484.78;5033376;28;20117;-68
2022/05/18 05:02:02;;;;;;;9.77;5.50;;;;;;;-145.18;100.00;60484.78;5033474;28;20029;-68
2022/05/18 05:04:27;;;;;;;15.32;5.57;;;;;;;-145.18;100.00;60484.78;5034117;28;20060;-68
2022/05/18 05:06:53;;;;;;;12.48;5.90;;;;;;;-145.18;100.00;60484.78;5037965;28;20377;-68
2022/05/18 05:09:22;;;;;;;12.90;5.70;;;;;;;-145.18;100.00;60484.78;5035025;28;20106;-68
2022/05/18 05:11:48;;;;;;;12.38;6.22;;;;;;;-145.18;100.00;60484.78;5033138;28;20041;-68
2022/05/18 05:14:13;;;;;;;11.10;5.60;;;;;;;-145.18;100.00;60484.78;5030644;28;20030;-68
2022/05/18 05:16:38;;;;;;;11.85;5.53;;;;;;;-145.18;100.00;60484.78;5037003;28;20102;-68
2022/05/18 05:19:04;;;;;;;12.07;6.15;;;;;;;-145.18;100.00;60484.78;5050426;28;20021;-68
2022/05/18 05:21:29;;;;;;;14.45;5.75;;;;;;;-145.18;100.00;60484.78;5037486;28;20033;-68
2022/05/18 05:23:54;;;;;;;10.48;6.50;;;;;;;-145.18;100.00;60484.78;5034659;28;20040;-68
2022/05/18 05:26:20;;;;;;;11.88;6.30;;;;;;;-145.18;100.00;60484.78;5031120;28;20112;-68
2022/05/18 05:28:45;;;;;;;11.57;7.05;;;;;;;-145.18;100.00;60484.78;5032046;28;20034;-68
2022/05/18 05:31:11;;;;;;;12.30;6.80;;;;;;;-145.18;100.00;60484.78;5041296;28;20454;-68
2022/05/18 05:33:39;;;;;;;12.63;6.30;;;;;;;-145.18;100.00;60484.78;5047416;28;20047;-68
2022/05/18 05:36:07;;;;;;;10.60;6.38;;;;;;;-145.18;100.00;60484.78;5039710;28;20043;-68
2022/05/18 05:38:32;;;;;;;12.15;5.70;;;;;;;-145.18;100.00;60484.78;5034566;28;20044;-68
2022/05/18 05:41:01;;;;;;;14.80;5.78;;;;;;;-145.18;100.00;60484.78;5034771;28;20037;-68
2022/05/18 05:43:28;;;;;;;10.93;5.65;;;;;;;-145.18;100.00;60484.78;5043404;28;20040;-68
2022/05/18 05:45:56;;;;;;;10.80;5.50;;;;;;;-145.18;100.00;60484.78;5038266;28;20030;-68
2022/05/18 05:48:21;;;;;;;10.63;5.50;;;;;;;-145.18;100.00;60484.78;5041799;28;20035;-68
2022/05/18 05:50:47;;;;;;;10.80;5.90;;;;;;;-145.18;100.00;60484.78;5032315;28;20064;-68
2022/05/18 05:53:12;;;;;;;10.00;5.80;;;;;;;-145.18;100.00;60484.78;5034849;28;20046;-68
2022/05/18 05:55:37;;;;;;;8.38;4.70;;;;;;;-145.18;100.00;60484.78;5033579;28;20025;-68
2022/05/18 05:58:03;;;;;;;10.48;5.50;;;;;;;-145.18;100.00;60484.78;5033681;28;20040;-68
2022/05/18 06:00:28;;;;;;;12.43;5.22;;;;;;;-145.18;100.00;60484.78;5034157;28;20094;-68
2022/05/18 06:02:54;;;;;;;15.70;6.05;;;;;;;-145.18;100.00;60484.78;5033763;28;20041;-68
2022/05/18 06:05:19;;;;;;;11.00;4.90;;;;;;;-145.18;100.00;60484.78;5033292;28;20029;-68
2022/05/18 06:07:45;;;;;;;9.88;4.95;;;;;;;-145.18;100.00;60484.78;5045807;28;20032;-68
2022/05/18 06:10:12;;;;;;;10.02;5.10;;;;;;;-145.18;100.00;60484.78;5053014;28;20396;-68
2022/05/18 06:12:38;;;;;;;8.82;4.82;;;;;;;-145.18;100.00;60484.78;5050887;28;20029;-68
2022/05/18 06:15:04;;;;;;;9.43;4.53;;;;;;;-145.18;100.00;60484.78;5051987;28;20025;-68
2022/05/18 06:17:30;;;;;;;9.25;4.47;;;;;;;-145.18;100.00;60484.78;5053298;28;20057;-68
2022/05/18 06:19:55;;;;;;;9.80;4.40;;;;;;;-145.18;100.00;60484.78;5053147;28;20056;-68
2022/05/18 06:22:21;;;;;;;7.75;4.10;;;;;;;-145.18;100.00;60484.78;5051561;28;20035;-68
2022/05/18 06:24:49;;;;;;;8.35;3.92;;;;;;;-145.18;100.00;60484.78;5053326;28;20105;-68
2022/05/18 06:27:15;;;;;;;9.50;3.92;;;;;;;-145.18;100.00;60484.78;5040716;28;20033;-68
2022/05/18 06:29:40;;;;;;;8.73;3.90;;;;;;;-145.18;100.00;60484.78;5032903;28;20052;-68
2022/05/18 06:32:06;;;;;;;8.32;3.78;;;;;;;-145.18;100.00;60484.78;5033377;28;20112;-68
2022/05/18 06:34:32;;;;;;;7.72;3.72;;;;;;;-145.18;100.00;60484.78;5044206;28;20032;-68
2022/05/18 06:36:57;;;;;;;8.32;3.58;;;;;;;-145.18;100.00;60484.78;5051559;28;20091;-68
2022/05/18 06:39:23;;;;;;;9.27;3.40;;;;;;;-145.18;100.00;60484.78;5042334;28;20025;-68
2022/05/18 06:41:48;;;;;;;7.05;3.47;;;;;;;-145.18;100.00;60484.78;5052994;28;20025;-68
2022/05/18 06:44:14;;;;;;;7.60;3.08;;;;;;;-145.18;100.00;60484.78;5052520;28;20553;-68
2022/05/18 06:46:40;;;;;;;14.43;3.22;;;;;;;-145.18;100.00;60484.78;5052446;28;20036;-68
2022/05/18 06:49:08;;;;;;;9.82;3.10;;;;;;;-145.18;100.00;60484.78;5052753;28;20465;-68
2022/05/18 06:51:40;;;;;;;7.95;3.05;;;;;;;-145.18;100.00;60484.78;5049106;28;20115;-68
2022/05/18 06:54:07;;;;;;;9.88;3.40;;;;;;;-145.18;100.00;60484.78;5051137;28;20078;-68
2022/05/18 06:56:36;;;;;;;9.13;2.90;;;;;;;-145.18;100.00;60484.78;5043540;28;20022;-68
2022/05/18 06:59:03;;;;;;;6.97;2.70;;;;;;;-145.18;100.00;60484.78;5032659;28;20399;-68
2022/05/18 07:01:28;;;;;;;6.45;2.78;;;;;;;-145.18;100.00;60484.78;5032493;28;20096;-68
2022/05/18 07:03:54;;;;;;;5.38;2.67;;;;;;;-145.18;100.00;60484.78;5032244;28;20117;-68
2022/05/18 07:06:22;;;;;;;5.60;2.78;;;;;;;-145.18;100.00;60484.78;5037055;28;20037;-68
2022/05/18 07:08:51;;;;;;;5.47;2.35;;;;;;;-145.18;100.00;60484.78;5052426;28;20047;-68
2022/05/18 07:11:20;;;;;;;6.53;3.03;;;;;;;-145.18;100.00;60484.78;5052215;28;20025;-69
2022/05/18 07:13:51;;;;;;;6.57;2.55;;;;;;;-145.18;100.00;60484.78;5052173;28;20074;-68
2022/05/18 07:16:18;;;;;;;9.50;2.40;;;;;;;-145.18;100.00;60484.78;5052010;28;20028;-68
2022/05/18 07:18:45;;;;;;;7.63;2.05;;;;;;;-145.18;100.00;60484.78;5035315;28;20025;-68
2022/05/18 07:21:11;;;;;;;8.82;2.20;;;;;;;-145.18;100.00;60484.78;5032145;28;20037;-68
2022/05/18 07:23:36;;;;;;;6.03;1.92;;;;;;;-145.18;100.00;60484.78;5048630;28;20025;-68
2022/05/18 07:26:03;;;;;;;9.75;2.30;;;;;;;-145.18;100.00;60484.78;5034307;28;20021;-68
2022/05/18 07:28:28;;;;;;;5.63;2.20;;;;;;;-145.18;100.00;60484.78;5051649;28;20029;-68
2022/05/18 07:30:54;;;;;;;5.07;2.08;;;;;;;-145.18;100.00;60484.78;5051380;28;20036;-68
2022/05/18 07:33:21;;;;;;;8.20;2.25;;;;;;;-145.18;100.00;60484.78;5051879;28;20048;-67
2022/05/18 07:35:47;;;;;;;9.15;2.03;;;;;;;-145.18;100.00;60484.78;5043794;28;20668;-68
2022/05/18 07:38:13;;;;;;;5.75;2.13;;;;;;;-145.18;100.00;60484.78;5049248;28;20029;-68
2022/05/18 07:40:39;;;;;;;5.57;2.03;;;;;;;-145.18;100.00;60484.78;5036019;28;20029;-69
2022/05/18 07:43:04;;;;;;;8.40;2.55;;;;;;;-145.18;100.00;60484.78;5051598;28;20028;-68
2022/05/18 07:45:29;;;;;;;7.75;1.75;;;;;;;-145.18;100.00;60484.78;5049600;28;20033;-68
2022/05/18 07:47:55;;;;;;;5.63;1.80;;;;;;;-145.18;100.00;60484.78;5051766;28;20029;-68
2022/05/18 07:50:23;;;;;;;8.00;2.20;;;;;;;-145.18;100.00;60484.78;5048031;28;20037;-69
2022/05/18 07:52:49;;;;;;;5.07;1.98;;;;;;;-145.18;100.00;60484.78;5051173;28;20078;-69
2022/05/18 07:55:15;;;;;;;6.15;2.15;;;;;;;-145.18;100.00;60484.78;5051317;28;20021;-69
2022/05/18 07:57:41;;;;;;;5.60;2.10;;;;;;;-145.18;100.00;60484.78;5049384;28;20079;-68
2022/05/18 08:00:08;;;;;;;5.78;2.00;;;;;;;-145.18;100.00;60484.78;5037392;28;20056;-68
2022/05/18 08:02:34;;;;;;;7.70;2.15;;;;;;;-145.18;100.00;60484.78;5050933;28;20024;-68
2022/05/18 08:05:00;;;;;;;6.72;1.90;;;;;;;-145.18;100.00;60484.78;5051430;28;20058;-68
2022/05/18 08:07:26;;;;;;;4.93;1.98;;;;;;;-145.18;100.00;60484.78;5049025;28;20025;-68
2022/05/18 08:15:20;;;;;;;5.47;2.03;;;;;;;-145.18;100.00;60484.78;5047683;28;20083;-69
2022/05/18 08:17:46;;;;;;;5.03;1.90;;;;;;;-145.18;100.00;60484.78;5043882;28;20067;-68
2022/05/18 08:20:17;;;;;;;5.57;2.28;;;;;;;-145.18;100.00;60484.78;5051312;28;20032;-69
2022/05/18 08:22:43;;;;;;;7.35;2.42;;;;;;;-145.18;100.00;60484.78;5047167;28;20033;-69
2022/05/18 08:25:09;;;;;;;5.00;2.22;;;;;;;-145.18;100.00;60484.78;5048282;28;20031;-69
2022/05/18 08:27:39;;;;;;;6.05;2.40;;;;;;;-145.18;100.00;60484.78;5051278;28;20025;-69
2022/05/18 08:30:06;;;;;;;5.63;1.85;;;;;;;-145.18;100.00;60484.78;5051189;28;20469;-69
2022/05/18 08:32:32;;;;;;;6.60;2.47;;;;;;;-145.18;100.00;60484.78;5035776;28;20044;-69
2022/05/18 08:34:58;;;;;;;6.68;2.05;;;;;;;-145.18;100.00;60484.78;5039434;28;20033;-69
2022/05/18 08:37:24;;;;;;;5.13;2.10;;;;;;;-145.18;100.00;60484.78;5049210;28;20040;-69
2022/05/18 08:39:53;;;;;;;5.70;2.10;;;;;;;-145.18;100.00;60484.78;5035529;28;20398;-69
2022/05/18 08:42:20;;;;;;;6.55;2.20;;;;;;;-145.18;100.00;60484.78;5031272;28;20037;-69
2022/05/18 08:44:47;;;;;;;6.65;2.35;;;;;;;-145.18;100.00;60484.78;5034963;28;20037;-69
2022/05/18 08:47:27;;;;;;;6.57;2.30;;;;;;;-145.18;100.00;60484.78;5042257;28;20167;-69
2022/05/18 08:50:13;;;;;;;5.78;2.20;;;;;;;-145.18;100.00;60484.78;5039986;28;20033;-69
2022/05/18 08:53:04;;;;;;;5.78;2.30;;;;;;;-145.18;100.00;60484.78;5049178;28;20047;-69
2022/05/18 08:55:39;;;;;;;6.88;2.35;;;;;;;-145.18;100.00;60484.78;5031031;28;20485;-69
2022/05/18 08:58:11;;;;;;;6.10;2.17;;;;;;;-145.18;100.00;60484.78;5030817;28;20017;-69
2022/05/18 09:00:44;;;;;;;7.78;2.65;;;;;;;-145.18;100.00;60484.78;5030949;28;20481;-69
2022/05/18 09:03:09;;;;;;;6.05;2.60;;;;;;;-145.18;100.00;60484.78;5053340;28;20035;-69
2022/05/18 09:05:43;;;;;;;6.50;2.40;;;;;;;-145.18;100.00;60484.78;5054570;28;20127;-69
2022/05/18 09:08:13;;;;;;;7.18;2.40;;;;;;;-145.18;100.00;60484.78;5051635;28;20052;-69
2022/05/18 09:10:55;;;;;;;5.43;2.08;;;;;;;-145.18;100.00;60484.78;5054860;28;20025;-69
2022/05/18 09:13:21;;;;;;;7.70;2.75;;;;;;;-145.18;100.00;60484.78;5035798;28;20501;-69
2022/05/18 09:16:06;;;;;;;6.63;2.50;;;;;;;-145.18;100.00;60484.78;5035054;28;20447;-69
2022/05/18 09:18:37;;;;;;;8.63;2.80;;;;;;;-145.18;100.00;60484.78;5034359;28;20112;-68
2022/05/18 09:21:14;;;;;;;5.28;2.53;;;;;;;-145.18;100.00;60484.78;5034462;28;20444;-69
2022/05/18 09:23:58;;;;;;;6.13;2.63;;;;;;;-145.18;100.00;60484.78;5044801;28;20303;-69
2022/05/18 09:26:34;;;;;;;7.68;2.72;;;;;;;-145.18;100.00;60484.78;5034455;28;20420;-69
2022/05/18 09:29:04;;;;;;;9.57;2.88;;;;;;;-145.18;100.00;60484.78;5034524;28;20037;-69
2022/05/18 09:31:55;;;;;;;5.70;2.60;;;;;;;-145.18;100.00;60484.78;5050880;28;20032;-69
2022/05/18 09:34:28;;;;;;;6.60;2.38;;;;;;;-145.18;100.00;60484.78;5052621;28;20511;-69
2022/05/18 09:37:15;;;;;;;7.82;2.40;;;;;;;-145.18;100.00;60484.78;5051305;28;20055;-69
2022/05/18 09:39:46;;;;;;;7.43;2.50;;;;;;;-145.18;100.00;60484.78;5047947;28;20021;-69
2022/05/18 09:42:16;;;;;;;7.30;2.60;;;;;;;-145.18;100.00;60484.78;5054017;28;20497;-69
2022/05/18 09:44:42;;;;;;;7.60;2.30;;;;;;;-145.18;100.00;60484.78;5054061;28;20107;-69
2022/05/18 09:47:12;;;;;;;5.50;2.03;;;;;;;-145.18;100.00;60484.78;5052886;28;20771;-69
2022/05/18 09:49:51;;;;;;;5.13;2.10;;;;;;;-145.18;100.00;60484.78;5034337;28;20489;-69
2022/05/18 09:52:20;;;;;;;6.40;2.20;;;;;;;-145.18;100.00;60484.78;5040313;28;20480;-69
2022/05/18 09:54:45;;;;;;;7.97;2.05;;;;;;;-145.18;100.00;60484.78;5053023;28;20025;-69
2022/05/18 09:57:12;;;;;;;11.45;2.10;;;;;;;-145.18;100.00;60484.78;5033406;28;20078;-69
2022/05/18 09:59:43;;;;;;;8.63;2.10;;;;;;;-145.18;100.00;60484.78;5053427;28;20028;-69
2022/05/18 10:07:51;;;;;;;7.45;2.17;;;;;;;-145.18;100.00;60484.78;5036052;28;20044;-69
2022/05/18 10:10:19;;;;;;;5.25;1.80;;;;;;;-145.18;100.00;60484.78;5033358;28;20119;-69
2022/05/18 10:12:47;;;;;;;4.80;1.88;;;;;;;-145.18;100.00;60484.78;5032921;28;20025;-69
2022/05/18 10:15:29;;;;;;;5.88;1.80;;;;;;;-145.18;100.00;60484.78;5049941;28;20025;-69
2022/05/18 10:17:57;;;;;;;6.20;1.67;;;;;;;-145.18;100.00;60484.78;5040476;28;20034;-68
2022/05/18 10:20:28;;;;;;;5.53;1.70;;;;;;;-145.18;100.00;60484.78;5033558;28;20053;-69
2022/05/18 10:22:55;;;;;;;4.88;1.50;;;;;;;-145.18;100.00;60484.78;5040556;28;20433;-69
2022/05/18 10:25:41;;;;;;;5.40;1.63;;;;;;;-145.18;100.00;60484.78;5053016;28;20732;-69
2022/05/18 10:28:17;;;;;;;5.93;1.40;;;;;;;-145.18;100.00;60484.78;5043641;28;20418;-69
2022/05/18 10:30:54;;;;;;;8.38;1.60;;;;;;;-145.18;100.00;60484.78;5034830;28;20087;-68
2022/05/18 10:33:23;;;;;;;7.45;1.80;;;;;;;-145.18;100.00;60484.78;5036789;28;20049;-69
2022/05/18 10:35:52;;;;;;;6.32;1.48;;;;;;;-145.18;100.00;60484.78;5033234;28;20052;-69
2022/05/18 10:38:25;;;;;;;4.25;1.48;;;;;;;-145.18;100.00;60484.78;5044181;28;20112;-69
2022/05/18 10:40:55;;;;;;;5.47;1.73;;;;;;;-145.18;100.00;60484.78;5037432;28;20128;-69
2022/05/18 10:43:59;;;;;;;4.95;1.58;;;;;;;-145.18;100.00;60484.78;5033286;28;20025;-69
2022/05/18 10:46:31;;;;;;;4.07;1.30;;;;;;;-145.18;100.00;60484.78;5035953;28;20056;-69
2022/05/18 10:49:04;;;;;;;4.13;1.50;;;;;;;-145.18;100.00;60484.78;5035870;28;20076;-69
2022/05/18 10:51:39;;;;;;;5.22;1.50;;;;;;;-145.18;100.00;60484.78;5032564;28;20037;-68
2022/05/18 10:54:22;;;;;;;3.60;1.40;;;;;;;-145.18;100.00;60484.78;5039648;28;20026;-68
2022/05/18 10:56:49;;;;;;;4.80;1.50;;;;;;;-145.18;100.00;60484.78;5034124;28;20048;-68
2022/05/18 10:59:38;;;;;;;5.78;1.50;;;;;;;-145.18;100.00;60484.78;5043756;28;20041;-68
2022/05/18 11:02:04;;;;;;;4.60;1.50;;;;;;;-145.18;100.00;60484.78;5042587;28;20557;-68
2022/05/18 11:04:38;;;;;;;4.57;1.33;;;;;;;-145.18;100.00;60484.78;5032604;28;20041;-68
2022/05/18 11:07:05;;;;;;;2.35;1.30;;;;;;;-145.18;100.00;60484.78;5037378;28;20112;-68
2022/05/18 11:09:32;;;;;;;5.97;1.75;;;;;;;-145.18;100.00;60484.78;5037719;28;20728;-68
2022/05/18 11:12:15;;;;;;;4.45;1.35;;;;;;;-145.18;100.00;60484.78;5031401;28;20061;-69
2022/05/18 11:15:00;;;;;;;3.35;1.33;;;;;;;-145.18;100.00;60484.78;5042953;28;20025;-68
2022/05/18 11:17:45;;;;;;;3.40;1.23;;;;;;;-145.18;100.00;60484.78;5048377;28;20117;-68
2022/05/18 11:20:46;;;;;;;5.90;1.40;;;;;;;-145.18;100.00;60484.78;5036938;28;20409;-68
2022/05/18 11:23:27;;;;;;;4.45;1.25;;;;;;;-145.18;100.00;60484.78;5031220;28;20080;-69
2022/05/18 11:26:01;;;;;;;4.47;1.20;;;;;;;-145.18;100.00;60484.78;5033219;28;20034;-68
2022/05/18 11:29:01;;;;;;;6.00;1.90;;;;;;;-145.18;100.00;60484.78;5039715;28;20102;-68